createdAt,value
2022-12-23T00:00:28.756Z,0.16
2022-12-23T00:02:55.686Z,0.18
2022-12-23T00:05:22.577Z,0.04
2022-12-23T00:07:49.280Z,0.21
2022-12-23T00:10:16.017Z,-0.02
2022-12-23T00:13:01.339Z,-0.08
2022-12-23T00:15:27.999Z,0.19
2022-12-23T00:17:54.694Z,0.42
2022-12-23T00:20:21.365Z,0.05
2022-12-23T00:23:06.200Z,0.34
2022-12-23T00:25:40.625Z,0.45
2022-12-23T00:28:07.358Z,0.29
2022-12-23T00:30:34.004Z,0.29
2022-12-23T00:33:00.719Z,0.52
2022-12-23T00:35:31.556Z,0.31
2022-12-23T00:37:58.189Z,0.18
2022-12-23T00:40:43.594Z,0.29
2022-12-23T00:43:10.258Z,-0.15
2022-12-23T00:45:37.150Z,-0.21
2022-12-23T00:48:22.621Z,-0.11
2022-12-23T00:50:52.322Z,-0.73
2022-12-23T00:53:20.443Z,-0.31
2022-12-23T00:55:50.936Z,-0.25
2022-12-23T00:58:18.752Z,-0.22
2022-12-23T01:01:03.899Z,-0.22
2022-12-23T01:03:49.930Z,0.08
2022-12-23T01:06:17.026Z,0.06
2022-12-23T01:08:44.208Z,0.18
2022-12-23T01:11:12.623Z,0.35
2022-12-23T01:13:39.478Z,0.25
2022-12-23T01:16:15.087Z,0.09
2022-12-23T01:18:44.254Z,0.09
2022-12-23T01:21:11.813Z,0.00
2022-12-23T01:23:38.525Z,0.10
2022-12-23T01:26:07.043Z,0.31
2022-12-23T01:28:34.786Z,0.01
2022-12-23T01:31:02.731Z,-0.01
2022-12-23T01:33:31.847Z,0.29
2022-12-23T01:36:07.142Z,0.33
2022-12-23T01:38:34.798Z,0.06
2022-12-23T01:41:01.506Z,0.30
2022-12-23T01:43:49.133Z,-0.07
2022-12-23T01:46:16.878Z,-0.02
2022-12-23T01:48:49.090Z,0.02
2022-12-23T01:51:24.712Z,-0.06
2022-12-23T01:53:58.675Z,-0.21
2022-12-23T01:56:34.718Z,0.10
2022-12-23T01:59:06.619Z,0.11
2022-12-23T02:02:05.997Z,-0.19
2022-12-23T02:04:32.748Z,0.02
2022-12-23T02:07:18.005Z,-0.10
2022-12-23T02:09:44.729Z,-0.34
2022-12-23T02:12:14.383Z,-0.05
2022-12-23T02:15:08.636Z,0.09
2022-12-23T02:17:35.237Z,0.08
2022-12-23T02:20:29.146Z,0.02
2022-12-23T02:23:14.670Z,-0.37
2022-12-23T02:25:50.284Z,-0.39
2022-12-23T02:28:41.711Z,-0.44
2022-12-23T02:31:19.298Z,-0.71
2022-12-23T02:34:02.082Z,-0.77
2022-12-23T02:36:46.334Z,-0.84
2022-12-23T02:39:38.336Z,-0.88
2022-12-23T02:42:26.076Z,-0.68
2022-12-23T02:45:11.644Z,-0.58
2022-12-23T02:47:45.153Z,-0.55
2022-12-23T02:50:20.167Z,-0.45
2022-12-23T02:52:50.012Z,-0.25
2022-12-23T02:55:22.496Z,-0.15
2022-12-23T02:57:55.087Z,-0.16
2022-12-23T03:00:22.838Z,-0.32
2022-12-23T03:02:50.234Z,-0.35
2022-12-23T03:05:26.169Z,-0.22
2022-12-23T03:07:54.546Z,-0.23
2022-12-23T03:10:27.030Z,-0.18
2022-12-23T03:13:03.480Z,0.02
2022-12-23T03:15:39.064Z,0.05
2022-12-23T03:18:22.205Z,-0.02
2022-12-23T03:21:01.797Z,-0.09
2022-12-23T03:23:55.414Z,-0.08
2022-12-23T03:26:30.606Z,0.12
2022-12-23T03:29:03.662Z,0.14
2022-12-23T03:31:32.965Z,0.09
2022-12-23T03:34:11.378Z,-0.17
2022-12-23T03:36:51.156Z,-0.10
2022-12-23T03:39:22.175Z,0.02
2022-12-23T03:41:56.523Z,-0.14
2022-12-23T03:44:37.703Z,-0.02
2022-12-23T03:47:30.414Z,-0.07
2022-12-23T03:50:08.787Z,-0.15
2022-12-23T03:52:41.444Z,-0.09
2022-12-23T03:55:14.688Z,-0.19
2022-12-23T03:57:47.391Z,-0.21
2022-12-23T04:00:14.166Z,-0.28
2022-12-23T04:03:24.244Z,-0.40
2022-12-23T04:05:58.171Z,-0.77
2022-12-23T04:08:35.935Z,-0.77
2022-12-23T04:11:03.946Z,-0.62
2022-12-23T04:13:32.005Z,-0.52
2022-12-23T04:16:00.347Z,-0.47
2022-12-23T04:18:27.756Z,-0.33
2022-12-23T04:20:54.584Z,-0.47
2022-12-23T04:23:21.338Z,-0.43
2022-12-23T04:25:47.938Z,-0.39
2022-12-23T04:28:14.615Z,-0.44
2022-12-23T04:30:41.359Z,-0.63
2022-12-23T04:33:11.633Z,-0.63
2022-12-23T04:35:38.857Z,-0.93
2022-12-23T04:38:05.840Z,-0.87
2022-12-23T04:40:32.490Z,-1.01
2022-12-23T04:42:59.128Z,-0.90
2022-12-23T04:45:25.821Z,-0.71
2022-12-23T04:47:52.462Z,-0.61
2022-12-23T04:50:19.134Z,-0.60
2022-12-23T04:52:45.931Z,-0.67
2022-12-23T04:55:12.646Z,-0.58
2022-12-23T04:57:39.404Z,-0.44
2022-12-23T05:00:06.858Z,-0.46
2022-12-23T05:02:33.755Z,-0.36
2022-12-23T05:05:00.478Z,-0.41
2022-12-23T05:07:27.227Z,-0.51
2022-12-23T05:09:53.927Z,-0.54
2022-12-23T05:12:20.617Z,-0.44
2022-12-23T05:14:47.374Z,-0.28
2022-12-23T05:17:14.026Z,-0.31
2022-12-23T05:19:40.653Z,-0.44
2022-12-23T05:22:07.395Z,-0.36
2022-12-23T05:24:33.990Z,-0.62
2022-12-23T05:27:00.833Z,-0.72
2022-12-23T05:29:27.999Z,-0.80
2022-12-23T05:31:54.689Z,-0.86
2022-12-23T05:34:21.831Z,-1.06
2022-12-23T05:36:48.597Z,-1.08
2022-12-23T05:39:15.221Z,-0.91
2022-12-23T05:41:41.816Z,-0.96
2022-12-23T05:44:08.603Z,-0.95
2022-12-23T05:46:35.360Z,-1.00
2022-12-23T05:49:02.066Z,-1.08
2022-12-23T05:51:28.773Z,-1.19
2022-12-23T05:53:55.412Z,-1.06
2022-12-23T05:56:22.057Z,-0.94
2022-12-23T05:58:49.052Z,-0.86
2022-12-23T06:01:15.744Z,-0.78
2022-12-23T06:03:42.480Z,-0.54
2022-12-23T06:06:09.281Z,-0.50
2022-12-23T06:08:35.935Z,-0.56
2022-12-23T06:11:05.746Z,-0.56
2022-12-23T06:13:32.449Z,-0.55
2022-12-23T06:15:59.147Z,-0.42
2022-12-23T06:18:25.834Z,-0.61
2022-12-23T06:20:52.521Z,-1.03
2022-12-23T06:23:19.136Z,-1.03
2022-12-23T06:25:45.769Z,-0.91
2022-12-23T06:28:12.649Z,-1.01
2022-12-23T06:30:39.276Z,-0.94
2022-12-23T06:33:05.933Z,-0.90
2022-12-23T06:35:32.550Z,-0.95
2022-12-23T06:37:59.212Z,-1.04
2022-12-23T06:40:25.964Z,-0.99
2022-12-23T06:42:52.938Z,-0.94
2022-12-23T06:45:19.537Z,-0.94
2022-12-23T06:47:46.170Z,-0.73
2022-12-23T06:50:12.936Z,-0.95
2022-12-23T06:52:39.583Z,-1.19
2022-12-23T06:55:06.503Z,-1.27
2022-12-23T06:57:33.394Z,-1.39
2022-12-23T07:00:00.008Z,-1.37
2022-12-23T07:02:26.739Z,-1.17
2022-12-23T07:04:53.446Z,-1.20
2022-12-23T07:07:20.104Z,-0.90
2022-12-23T07:09:46.794Z,-0.63
2022-12-23T07:12:13.553Z,-0.35
2022-12-23T07:14:40.208Z,-0.16
2022-12-23T07:17:06.905Z,0.22
2022-12-23T07:19:34.263Z,0.26
2022-12-23T07:22:01.715Z,0.56
2022-12-23T07:24:28.367Z,0.77
2022-12-23T07:26:56.103Z,0.42
2022-12-23T07:29:22.727Z,0.42
2022-12-23T07:31:49.594Z,0.32
2022-12-23T07:34:16.480Z,0.50
2022-12-23T07:36:43.223Z,0.59
2022-12-23T07:39:10.958Z,0.33
2022-12-23T07:41:37.647Z,0.53
2022-12-23T07:44:04.392Z,0.65
2022-12-23T07:46:31.112Z,0.69
2022-12-23T07:48:58.060Z,0.53
2022-12-23T07:51:24.792Z,0.62
2022-12-23T07:53:51.887Z,0.72
2022-12-23T07:56:19.221Z,0.49
2022-12-23T07:58:49.908Z,0.45
2022-12-23T08:01:17.787Z,0.23
2022-12-23T08:03:44.954Z,-0.09
2022-12-23T08:06:13.924Z,0.19
2022-12-23T08:08:42.029Z,0.08
2022-12-23T08:11:10.851Z,-0.01
2022-12-23T08:13:39.661Z,0.06
2022-12-23T08:16:07.559Z,0.60
2022-12-23T08:18:36.585Z,1.21
2022-12-23T08:21:19.123Z,1.78
2022-12-23T08:23:48.755Z,2.03
2022-12-23T08:26:24.019Z,2.45
2022-12-23T08:28:53.604Z,2.41
2022-12-23T08:31:23.937Z,2.61
2022-12-23T08:33:54.687Z,2.82
2022-12-23T08:36:30.477Z,2.68
2022-12-23T08:38:59.648Z,2.43
2022-12-23T08:41:33.690Z,2.11
2022-12-23T08:44:00.421Z,2.19
2022-12-23T08:46:28.001Z,1.91
2022-12-23T08:48:55.398Z,1.99
2022-12-23T08:51:24.269Z,2.42
2022-12-23T08:53:56.261Z,2.41
2022-12-23T08:56:29.320Z,2.31
2022-12-23T08:58:56.578Z,2.19
2022-12-23T09:01:26.063Z,2.03
2022-12-23T09:03:52.919Z,2.05
2022-12-23T09:06:29.519Z,2.45
2022-12-23T09:08:56.909Z,2.83
2022-12-23T09:11:25.966Z,3.11
2022-12-23T09:13:53.107Z,2.93
2022-12-23T09:16:21.166Z,2.96
2022-12-23T09:18:48.148Z,3.10
2022-12-23T09:21:18.675Z,3.05
2022-12-23T09:23:45.553Z,2.94
2022-12-23T09:26:18.570Z,2.81
2022-12-23T09:28:45.281Z,2.69
2022-12-23T09:31:13.614Z,2.83
2022-12-23T09:33:40.332Z,2.69
2022-12-23T09:36:07.723Z,2.51
2022-12-23T09:38:34.556Z,2.32
2022-12-23T09:41:04.625Z,2.42
2022-12-23T09:43:45.615Z,2.48
2022-12-23T09:46:22.001Z,2.48
2022-12-23T09:48:51.774Z,2.41
2022-12-23T09:51:23.626Z,2.63
2022-12-23T09:54:17.069Z,2.63
2022-12-23T09:57:05.445Z,2.58
2022-12-23T10:00:07.200Z,2.89
2022-12-23T10:02:47.321Z,3.02
2022-12-23T10:05:32.998Z,3.30
2022-12-23T10:08:17.845Z,3.06
2022-12-23T10:10:56.256Z,3.06
2022-12-23T10:13:49.060Z,3.02
2022-12-23T10:16:23.258Z,2.94
2022-12-23T10:19:04.229Z,3.06
2022-12-23T10:21:48.174Z,3.08
2022-12-23T10:24:20.802Z,2.98
2022-12-23T10:27:04.426Z,2.90
2022-12-23T10:29:33.062Z,3.04
2022-12-23T10:32:15.069Z,2.94
2022-12-23T10:34:59.850Z,2.82
2022-12-23T10:37:52.002Z,3.06
2022-12-23T10:40:37.620Z,3.35
2022-12-23T10:43:25.309Z,3.48
2022-12-23T10:46:02.186Z,3.51
2022-12-23T10:48:50.460Z,3.58
2022-12-23T10:51:25.477Z,3.52
2022-12-23T10:54:14.187Z,3.34
2022-12-23T10:56:41.075Z,3.44
2022-12-23T10:59:14.167Z,3.48
2022-12-23T11:01:43.181Z,3.68
2022-12-23T11:04:16.403Z,3.83
2022-12-23T11:06:48.027Z,3.91
2022-12-23T11:09:22.691Z,3.96
2022-12-23T11:12:01.259Z,4.14
2022-12-23T11:14:36.991Z,4.19
2022-12-23T11:17:17.509Z,4.06
2022-12-23T11:19:44.316Z,4.29
2022-12-23T11:22:23.294Z,4.65
2022-12-23T11:24:50.365Z,4.59
2022-12-23T11:27:18.019Z,4.39
2022-12-23T11:29:51.763Z,4.51
2022-12-23T11:32:28.991Z,4.82
2022-12-23T11:34:56.633Z,4.77
2022-12-23T11:37:30.166Z,5.02
2022-12-23T11:39:56.891Z,5.57
2022-12-23T11:42:29.511Z,6.50
2022-12-23T11:44:59.504Z,7.58
2022-12-23T11:47:34.263Z,7.56
2022-12-23T11:50:21.473Z,6.89
2022-12-23T11:53:01.122Z,7.17
2022-12-23T11:55:32.980Z,6.72
2022-12-23T11:58:01.774Z,6.78
2022-12-23T12:00:36.801Z,7.63
2022-12-23T12:03:05.001Z,7.88
2022-12-23T12:05:36.993Z,7.80
2022-12-23T12:08:11.570Z,7.83
2022-12-23T12:10:40.336Z,7.94
2022-12-23T12:13:28.353Z,8.09
2022-12-23T12:16:10.448Z,7.64
2022-12-23T12:18:40.063Z,7.51
2022-12-23T12:21:12.611Z,7.83
2022-12-23T12:24:17.057Z,8.24
2022-12-23T12:26:47.177Z,8.26
2022-12-23T12:29:33.026Z,8.06
2022-12-23T12:32:01.800Z,7.75
2022-12-23T12:35:18.859Z,7.95
2022-12-23T12:37:51.620Z,8.75
2022-12-23T12:40:32.471Z,8.05
2022-12-23T12:43:11.733Z,7.73
2022-12-23T12:45:45.943Z,7.55
2022-12-23T12:48:18.722Z,7.30
2022-12-23T12:51:01.436Z,7.56
2022-12-23T12:53:29.938Z,7.64
2022-12-23T12:56:06.223Z,7.73
2022-12-23T12:58:32.899Z,7.58
2022-12-23T13:01:02.904Z,7.35
2022-12-23T13:03:51.095Z,7.50
2022-12-23T13:06:36.034Z,7.02
2022-12-23T13:09:33.963Z,7.18
2022-12-23T13:12:38.848Z,7.17
2022-12-23T13:15:05.794Z,7.14
2022-12-23T13:17:39.475Z,7.19
2022-12-23T13:20:09.241Z,7.24
2022-12-23T13:22:37.339Z,7.28
2022-12-23T13:25:14.657Z,7.29
2022-12-23T13:27:54.726Z,7.20
2022-12-23T13:30:28.588Z,7.42
2022-12-23T13:33:22.700Z,7.22
2022-12-23T13:36:07.712Z,7.33
2022-12-23T13:38:53.001Z,7.34
2022-12-23T13:41:36.072Z,7.54
2022-12-23T13:44:05.954Z,7.61
2022-12-23T13:46:57.003Z,7.70
2022-12-23T13:49:41.641Z,7.84
2022-12-23T13:52:48.397Z,7.89
2022-12-23T13:55:42.170Z,7.88
2022-12-23T13:58:22.049Z,7.73
2022-12-23T14:01:10.460Z,7.90
2022-12-23T14:03:39.140Z,7.91
2022-12-23T14:06:24.017Z,7.91
2022-12-23T14:08:52.858Z,7.69
2022-12-23T14:11:29.661Z,7.52
2022-12-23T14:14:00.600Z,7.22
2022-12-23T14:16:55.148Z,6.97
2022-12-23T14:19:38.913Z,6.96
2022-12-23T14:22:43.195Z,6.78
2022-12-23T14:25:25.286Z,6.69
2022-12-23T14:28:13.616Z,6.75
2022-12-23T14:30:46.004Z,6.61
2022-12-23T14:33:24.702Z,6.69
2022-12-23T14:35:53.202Z,6.78
2022-12-23T14:38:26.635Z,6.97
2022-12-23T14:41:45.533Z,7.03
2022-12-23T14:44:43.713Z,6.94
2022-12-23T14:47:40.277Z,7.01
2022-12-23T14:50:37.086Z,6.95
2022-12-23T14:53:20.283Z,6.88
2022-12-23T14:55:49.190Z,6.91
2022-12-23T14:58:18.790Z,6.76
2022-12-23T15:00:53.297Z,6.82
2022-12-23T15:03:20.493Z,6.76
2022-12-23T15:05:47.564Z,6.62
2022-12-23T15:08:32.049Z,6.68
2022-12-23T15:10:59.394Z,6.58
2022-12-23T15:13:29.287Z,6.63
2022-12-23T15:16:01.414Z,6.63
2022-12-23T15:18:29.017Z,6.67
2022-12-23T15:21:00.663Z,6.84
2022-12-23T15:23:27.418Z,6.79
2022-12-23T15:25:58.049Z,6.62
2022-12-23T15:28:37.672Z,6.60
2022-12-23T15:31:05.985Z,6.77
2022-12-23T15:34:02.126Z,6.55
2022-12-23T15:36:31.460Z,6.63
2022-12-23T15:39:00.477Z,6.73
2022-12-23T15:41:27.229Z,6.61
2022-12-23T15:43:57.849Z,6.50
2022-12-23T15:46:29.909Z,6.46
2022-12-23T15:48:57.296Z,6.53
2022-12-23T15:52:06.619Z,6.67
2022-12-23T15:54:36.915Z,6.62
2022-12-23T15:57:04.604Z,6.64
2022-12-23T15:59:38.328Z,6.59
2022-12-23T16:05:26.087Z,6.55
2022-12-23T16:08:13.560Z,6.66
2022-12-23T16:10:41.363Z,6.65
2022-12-23T16:13:19.461Z,6.75
2022-12-23T16:15:47.310Z,6.91
2022-12-23T16:18:22.094Z,6.88
2022-12-23T16:20:54.655Z,6.86
2022-12-23T16:23:22.737Z,6.87
2022-12-23T16:25:53.002Z,6.85
2022-12-23T16:28:24.501Z,6.66
2022-12-23T16:30:56.990Z,6.89
2022-12-23T16:33:43.662Z,6.87
2022-12-23T16:36:25.692Z,7.00
2022-12-23T16:39:15.562Z,6.94
2022-12-23T16:41:42.231Z,6.97
2022-12-23T16:44:08.958Z,6.94
2022-12-23T16:46:42.899Z,6.90
2022-12-23T16:49:15.465Z,6.80
2022-12-23T16:51:42.587Z,6.86
2022-12-23T16:54:15.140Z,6.99
2022-12-23T16:56:42.024Z,6.87
2022-12-23T16:59:09.408Z,6.80
2022-12-23T17:01:43.436Z,6.71
2022-12-23T17:04:10.236Z,6.59
2022-12-23T17:06:37.831Z,6.60
2022-12-23T17:09:05.717Z,6.24
2022-12-23T17:11:41.917Z,6.09
2022-12-23T17:14:15.844Z,6.13
2022-12-23T17:16:43.448Z,6.17
2022-12-23T17:19:10.282Z,6.11
2022-12-23T17:21:39.177Z,6.13
2022-12-23T17:24:23.934Z,6.14
2022-12-23T17:26:51.331Z,6.00
2022-12-23T17:29:18.211Z,5.81
2022-12-23T17:31:45.974Z,5.51
2022-12-23T17:34:18.278Z,5.50
2022-12-23T17:36:50.063Z,5.33
2022-12-23T17:39:17.865Z,5.41
2022-12-23T17:41:44.607Z,5.38
2022-12-23T17:44:14.202Z,5.46
2022-12-23T17:46:40.916Z,5.60
2022-12-23T17:49:08.718Z,5.53
2022-12-23T17:51:35.581Z,5.71
2022-12-23T17:54:02.426Z,5.82
2022-12-23T17:56:29.148Z,5.81
2022-12-23T17:58:55.909Z,5.83
2022-12-23T18:01:28.709Z,5.98
2022-12-23T18:03:56.936Z,5.98
2022-12-23T18:06:24.983Z,6.07
2022-12-23T18:08:58.495Z,6.10
2022-12-23T18:11:35.280Z,6.13
2022-12-23T18:14:03.390Z,6.10
2022-12-23T18:16:30.099Z,6.16
2022-12-23T18:18:57.169Z,5.94
2022-12-23T18:21:28.666Z,5.83
2022-12-23T18:23:57.694Z,5.75
2022-12-23T18:26:25.024Z,5.79
2022-12-23T18:28:54.213Z,5.85
2022-12-23T18:31:24.238Z,5.76
2022-12-23T18:33:51.475Z,5.87
2022-12-23T18:36:28.534Z,5.92
2022-12-23T18:38:56.578Z,5.88
2022-12-23T18:41:24.677Z,5.87
2022-12-23T18:43:51.804Z,5.89
2022-12-23T18:46:20.199Z,5.84
2022-12-23T18:48:47.422Z,5.99
2022-12-23T18:51:19.140Z,6.16
2022-12-23T18:53:49.249Z,5.85
2022-12-23T18:56:19.306Z,5.81
2022-12-23T18:58:46.093Z,5.87
2022-12-23T19:01:14.634Z,5.87
2022-12-23T19:03:42.200Z,5.89
2022-12-23T19:06:11.887Z,5.95
2022-12-23T19:08:39.216Z,6.04
2022-12-23T19:11:14.239Z,6.07
2022-12-23T19:13:41.041Z,6.13
2022-12-23T19:16:08.359Z,6.15
2022-12-23T19:18:35.103Z,6.18
2022-12-23T19:21:04.752Z,6.09
2022-12-23T19:23:31.696Z,6.29
2022-12-23T19:25:58.393Z,6.28
2022-12-23T19:28:25.102Z,5.89
2022-12-23T19:30:51.900Z,5.75
2022-12-23T19:33:19.146Z,5.63
2022-12-23T19:35:45.841Z,5.56
2022-12-23T19:38:12.731Z,5.67
2022-12-23T19:40:40.555Z,5.59
2022-12-23T19:43:07.877Z,5.58
2022-12-23T19:45:34.601Z,5.65
2022-12-23T19:48:01.291Z,5.73
2022-12-23T19:50:27.990Z,5.74
2022-12-23T19:52:56.528Z,5.87
2022-12-23T19:55:23.587Z,5.83
2022-12-23T19:57:50.532Z,5.66
2022-12-23T20:00:17.258Z,5.53
2022-12-23T20:02:43.966Z,5.53
2022-12-23T20:05:10.783Z,5.41
2022-12-23T20:07:37.888Z,5.50
2022-12-23T20:10:05.763Z,5.48
2022-12-23T20:12:32.783Z,5.61
2022-12-23T20:14:59.515Z,5.70
2022-12-23T20:17:26.248Z,5.60
2022-12-23T20:19:52.976Z,5.74
2022-12-23T20:22:19.720Z,5.77
2022-12-23T20:24:46.456Z,5.64
2022-12-23T20:27:15.721Z,5.65
2022-12-23T20:29:42.864Z,5.61
2022-12-23T20:32:09.565Z,5.64
2022-12-23T20:34:39.652Z,5.55
2022-12-23T20:37:07.203Z,5.38
2022-12-23T20:39:34.363Z,5.53
2022-12-23T20:42:01.089Z,5.49
2022-12-23T20:44:36.857Z,5.55
2022-12-23T20:47:05.648Z,5.47
2022-12-23T20:49:32.411Z,5.36
2022-12-23T20:51:59.139Z,5.51
2022-12-23T20:54:32.257Z,5.67
2022-12-23T20:57:00.523Z,5.62
2022-12-23T20:59:27.203Z,5.69
2022-12-23T21:01:53.898Z,5.57
2022-12-23T21:04:20.819Z,5.68
2022-12-23T21:06:47.648Z,5.69
2022-12-23T21:09:15.742Z,5.74
2022-12-23T21:11:44.826Z,5.63
2022-12-23T21:14:12.837Z,5.30
2022-12-23T21:16:40.455Z,5.17
2022-12-23T21:19:09.240Z,4.94
2022-12-23T21:21:36.135Z,4.87
2022-12-23T21:24:04.821Z,5.02
2022-12-23T21:26:33.387Z,4.86
2022-12-23T21:29:01.446Z,5.04
2022-12-23T21:31:29.750Z,5.07
2022-12-23T21:33:57.286Z,5.07
2022-12-23T21:36:28.113Z,5.17
2022-12-23T21:38:55.169Z,5.06
2022-12-23T21:41:27.745Z,5.07
2022-12-23T21:43:56.527Z,4.93
2022-12-23T21:46:24.324Z,4.91
2022-12-23T21:48:51.465Z,4.97
2022-12-23T21:51:21.941Z,4.98
2022-12-23T21:53:51.230Z,5.01
2022-12-23T21:56:25.844Z,5.03
2022-12-23T21:59:01.275Z,5.12
2022-12-23T22:01:28.627Z,5.14
2022-12-23T22:03:56.411Z,5.21
2022-12-23T22:06:26.527Z,5.22
2022-12-23T22:08:54.544Z,5.24
2022-12-23T22:11:24.362Z,5.16
2022-12-23T22:13:51.471Z,5.20
2022-12-23T22:16:24.092Z,5.03
2022-12-23T22:18:52.148Z,5.09
2022-12-23T22:21:23.405Z,4.85
2022-12-23T22:23:51.632Z,4.68
2022-12-23T22:26:25.498Z,4.54
2022-12-23T22:28:57.127Z,4.19
2022-12-23T22:31:41.795Z,4.32
2022-12-23T22:34:11.311Z,4.45
2022-12-23T22:36:37.972Z,4.61
2022-12-23T22:39:05.340Z,4.51
2022-12-23T22:41:33.187Z,4.64
2022-12-23T22:44:00.460Z,4.61
2022-12-23T22:46:27.816Z,4.67
2022-12-23T22:48:54.738Z,4.65
2022-12-23T22:51:24.781Z,4.54
2022-12-23T22:53:51.811Z,4.69
2022-12-23T22:56:20.009Z,4.76
2022-12-23T22:58:47.306Z,4.72
2022-12-23T23:01:34.959Z,4.72
2022-12-23T23:04:03.745Z,4.83
2022-12-23T23:06:37.799Z,4.76
2022-12-23T23:09:06.808Z,4.73
2022-12-23T23:11:33.576Z,4.88
2022-12-23T23:14:00.234Z,4.71
2022-12-23T23:16:27.362Z,4.71
2022-12-23T23:18:54.821Z,4.80
2022-12-23T23:21:22.311Z,4.91
2022-12-23T23:23:50.009Z,4.83
2022-12-23T23:26:17.426Z,4.79
2022-12-23T23:28:44.728Z,4.51
2022-12-23T23:31:42.749Z,4.65
2022-12-23T23:33:58.430Z,4.65
2022-12-23T23:36:25.388Z,4.30
2022-12-23T23:38:52.120Z,4.43
2022-12-23T23:41:22.922Z,4.30
2022-12-23T23:43:50.971Z,4.33
2022-12-23T23:46:17.713Z,4.26
2022-12-23T23:48:44.432Z,4.17
2022-12-23T23:51:11.095Z,4.03
2022-12-23T23:53:37.745Z,4.11
2022-12-23T23:56:07.302Z,4.12
2022-12-23T23:58:35.220Z,4.13
